Time;durP1;ratioP1;P1;durP2;ratioP2;P2;SDS_P1;SDS_P2;PMS_P1;PMS_P2;Temp;Humidity;BMP_temperature;BMP_pressure;BME280_temperature;BME280_humidity;BME280_pressure;Samples;Min_cycle;Max_cycle;Signal;HPM_P1;HPM_P2
2023/08/29 00:01:13;;;;;;;2.73;2.53;;;20.90;59.80;;;;;;5034899;28;20272;-50
2023/08/29 00:03:39;;;;;;;2.40;1.90;;;20.90;59.70;;;;;;5033175;28;20200;-44
2023/08/29 00:06:05;;;;;;;3.40;2.70;;;20.90;59.80;;;;;;5031101;28;20428;-44
2023/08/29 00:08:34;;;;;;;2.60;2.40;;;20.90;59.80;;;;;;5034295;28;20232;-44
2023/08/29 00:11:02;;;;;;;2.30;2.20;;;20.90;60.00;;;;;;5028476;28;20443;-45
2023/08/29 00:13:28;;;;;;;2.67;2.40;;;20.90;60.00;;;;;;5033602;28;20451;-44
2023/08/29 00:15:55;;;;;;;3.37;2.20;;;20.90;59.90;;;;;;5023022;28;20988;-44
2023/08/29 00:18:21;;;;;;;2.97;2.77;;;20.80;60.00;;;;;;5030810;28;20428;-51
2023/08/29 00:20:46;;;;;;;2.90;2.70;;;20.80;60.10;;;;;;5024602;28;20454;-44
2023/08/29 00:23:12;;;;;;;2.50;2.27;;;20.80;60.20;;;;;;5035238;28;20489;-45
2023/08/29 00:25:38;;;;;;;2.63;2.43;;;20.80;60.00;;;;;;5044884;28;20227;-46
2023/08/29 00:28:04;;;;;;;2.60;2.40;;;20.80;60.00;;;;;;5037508;28;20940;-46
2023/08/29 00:30:35;;;;;;;2.60;2.40;;;20.80;60.00;;;;;;5039660;28;20208;-46
2023/08/29 00:33:00;;;;;;;2.90;2.70;;;20.80;60.00;;;;;;5033324;28;20203;-45
2023/08/29 00:35:26;;;;;;;4.93;3.67;;;20.80;59.90;;;;;;5031951;28;20443;-50
2023/08/29 00:37:51;;;;;;;3.60;2.73;;;20.80;60.10;;;;;;5030511;28;20217;-44
2023/08/29 00:40:17;;;;;;;2.53;2.33;;;20.80;60.10;;;;;;5033564;28;20202;-44
2023/08/29 00:42:42;;;;;;;2.70;2.50;;;20.80;60.10;;;;;;5032263;28;20197;-46
2023/08/29 00:45:08;;;;;;;2.70;2.50;;;20.80;60.00;;;;;;5039646;28;20201;-46
2023/08/29 00:47:34;;;;;;;2.70;2.50;;;20.90;60.00;;;;;;5034048;28;20622;-44
2023/08/29 00:50:00;;;;;;;2.27;2.10;;;20.90;59.80;;;;;;5032117;28;20487;-44
2023/08/29 00:52:26;;;;;;;2.87;2.67;;;20.90;59.90;;;;;;5030572;28;20201;-44
2023/08/29 00:54:51;;;;;;;2.43;2.23;;;20.80;59.90;;;;;;5025179;28;20225;-44
2023/08/29 00:57:17;;;;;;;2.97;2.67;;;20.80;60.10;;;;;;5025076;28;20635;-45
2023/08/29 00:59:44;;;;;;;2.90;2.70;;;20.80;60.00;;;;;;5031117;28;20193;-44
2023/08/29 01:02:10;;;;;;;3.90;2.90;;;20.80;60.00;;;;;;5033797;28;20533;-44
2023/08/29 01:04:35;;;;;;;2.87;2.20;;;20.80;60.10;;;;;;5027910;28;20943;-44
2023/08/29 01:07:01;;;;;;;3.27;2.53;;;20.80;59.90;;;;;;5043584;28;20439;-44
2023/08/29 01:09:27;;;;;;;2.87;2.67;;;20.80;59.90;;;;;;5026638;28;20197;-46
2023/08/29 01:12:11;;;;;;;5.17;3.37;;;20.80;59.90;;;;;;5028021;28;20189;-46
2023/08/29 01:14:45;;;;;;;2.47;2.27;;;20.80;60.10;;;;;;5024579;28;20197;-45
2023/08/29 01:19:40;;;;;;;2.90;2.60;;;20.70;60.10;;;;;;5027152;28;20447;-46
2023/08/29 01:22:27;;;;;;;2.57;2.47;;;20.70;60.10;;;;;;5023243;28;20212;-44
2023/08/29 01:25:06;;;;;;;3.50;3.30;;;20.80;60.00;;;;;;5025728;28;20467;-44
2023/08/29 01:27:34;;;;;;;2.90;2.70;;;20.80;60.00;;;;;;5037473;28;20938;-45
2023/08/29 01:30:00;;;;;;;4.20;2.63;;;20.80;59.90;;;;;;5025646;28;20447;-45
2023/08/29 01:32:26;;;;;;;3.20;2.83;;;20.90;59.80;;;;;;5028894;28;20447;-45
2023/08/29 01:34:52;;;;;;;3.30;2.93;;;20.90;59.80;;;;;;5024731;28;20972;-44
2023/08/29 01:37:18;;;;;;;3.50;3.20;;;20.90;59.80;;;;;;5030147;28;20573;-44
2023/08/29 01:39:43;;;;;;;3.67;2.87;;;20.90;59.60;;;;;;5026184;28;20300;-44
2023/08/29 01:42:09;;;;;;;3.47;3.17;;;20.90;59.70;;;;;;5024476;28;20220;-45
2023/08/29 01:44:34;;;;;;;4.33;2.77;;;20.80;59.70;;;;;;5024659;28;20654;-44
2023/08/29 01:47:00;;;;;;;2.93;2.60;;;20.80;59.90;;;;;;5020011;28;20692;-45
2023/08/29 01:49:26;;;;;;;2.37;2.20;;;20.80;59.90;;;;;;5027210;28;20197;-46
2023/08/29 01:51:51;;;;;;;3.30;2.50;;;20.80;60.00;;;;;;5031395;28;20235;-44
2023/08/29 01:54:17;;;;;;;3.20;2.90;;;20.80;60.00;;;;;;5028375;28;20511;-45
2023/08/29 01:56:43;;;;;;;4.80;2.50;;;20.80;59.90;;;;;;5030514;28;20220;-44
2023/08/29 01:59:09;;;;;;;3.23;2.93;;;20.80;59.80;;;;;;5031914;28;20558;-46
2023/08/29 02:01:35;;;;;;;3.07;2.87;;;20.80;59.80;;;;;;5035321;28;20440;-49
2023/08/29 02:04:00;;;;;;;2.67;2.43;;;20.90;59.80;;;;;;5025552;28;20243;-44
2023/08/29 02:06:26;;;;;;;4.00;2.80;;;20.90;59.80;;;;;;5029869;28;21057;-45
2023/08/29 02:08:51;;;;;;;2.90;2.70;;;21.00;59.90;;;;;;5028727;28;20785;-45
2023/08/29 02:11:17;;;;;;;3.03;2.80;;;21.00;59.70;;;;;;5023525;28;20569;-46
2023/08/29 02:13:42;;;;;;;2.97;2.70;;;21.00;59.70;;;;;;5031178;28;20585;-47
2023/08/29 02:16:08;;;;;;;2.70;2.60;;;21.00;59.80;;;;;;5031890;28;20593;-49
2023/08/29 02:18:34;;;;;;;2.70;2.50;;;21.00;59.80;;;;;;5029751;28;20193;-44
2023/08/29 02:21:00;;;;;;;3.40;2.60;;;21.00;59.80;;;;;;5026352;28;20194;-45
2023/08/29 02:23:25;;;;;;;3.07;2.87;;;21.00;59.80;;;;;;5023616;28;20229;-45
2023/08/29 02:26:04;;;;;;;2.97;2.77;;;21.00;59.80;;;;;;5033403;28;20238;-47
2023/08/29 02:28:37;;;;;;;3.13;2.70;;;21.00;59.80;;;;;;5032546;28;20554;-45
2023/08/29 02:31:07;;;;;;;2.97;2.80;;;21.00;59.90;;;;;;5023846;28;20455;-44
2023/08/29 02:33:34;;;;;;;2.73;2.37;;;21.00;60.00;;;;;;5020511;28;20470;-45
2023/08/29 02:35:59;;;;;;;2.70;2.50;;;20.90;59.90;;;;;;5025378;28;20526;-44
2023/08/29 02:38:25;;;;;;;3.17;2.97;;;20.90;60.10;;;;;;5027073;28;20538;-44
2023/08/29 02:40:51;;;;;;;3.10;2.63;;;20.90;61.20;;;;;;5026166;28;20633;-44
2023/08/29 02:43:16;;;;;;;3.20;3.00;;;20.90;60.30;;;;;;5031379;28;20325;-44
2023/08/29 02:45:42;;;;;;;3.90;3.10;;;20.90;60.30;;;;;;5026165;28;20303;-47
2023/08/29 02:48:07;;;;;;;4.43;3.03;;;20.90;60.60;;;;;;5036088;28;20334;-44
2023/08/29 02:50:33;;;;;;;4.53;3.00;;;20.80;61.00;;;;;;5037642;28;20259;-46
2023/08/29 02:52:59;;;;;;;2.93;2.73;;;20.80;61.30;;;;;;5036033;28;20626;-44
2023/08/29 02:55:25;;;;;;;2.93;2.73;;;20.80;61.40;;;;;;5036295;28;20502;-45
2023/08/29 02:57:50;;;;;;;3.60;3.30;;;20.80;61.30;;;;;;5032099;28;20243;-44
2023/08/29 03:00:16;;;;;;;3.30;3.10;;;20.80;61.10;;;;;;5032237;28;20560;-48
2023/08/29 03:02:42;;;;;;;3.30;3.10;;;20.80;61.10;;;;;;5037021;28;20202;-45
2023/08/29 03:05:08;;;;;;;3.40;3.10;;;20.80;61.00;;;;;;5023692;28;20197;-47
2023/08/29 03:07:33;;;;;;;2.80;2.60;;;20.70;61.00;;;;;;5031888;28;20189;-46
2023/08/29 03:09:59;;;;;;;3.43;3.13;;;20.80;61.10;;;;;;5027669;28;20447;-45
2023/08/29 03:12:24;;;;;;;4.00;3.20;;;20.80;61.00;;;;;;5041564;28;20197;-44
2023/08/29 03:14:56;;;;;;;5.13;3.20;;;20.80;61.10;;;;;;5031919;28;20193;-44
2023/08/29 03:17:22;;;;;;;3.47;3.27;;;20.80;61.30;;;;;;5028815;28;20235;-44
2023/08/29 03:19:48;;;;;;;4.53;3.60;;;20.80;61.60;;;;;;5031364;28;20458;-51
2023/08/29 03:22:14;;;;;;;3.70;3.00;;;20.80;61.70;;;;;;5035111;28;20439;-47
2023/08/29 03:24:40;;;;;;;3.20;3.00;;;20.80;61.80;;;;;;5029427;28;20208;-49
2023/08/29 03:27:05;;;;;;;4.13;3.37;;;20.80;61.70;;;;;;5030679;28;20936;-47
2023/08/29 03:29:31;;;;;;;3.40;2.77;;;20.80;61.70;;;;;;5026824;28;20240;-46
2023/08/29 03:31:56;;;;;;;3.40;3.10;;;20.80;61.70;;;;;;5034061;28;20229;-45
2023/08/29 03:34:22;;;;;;;3.80;3.40;;;20.80;61.90;;;;;;5029717;28;20199;-46
2023/08/29 03:36:48;;;;;;;3.10;2.90;;;20.80;61.90;;;;;;5027390;28;20224;-46
2023/08/29 03:39:13;;;;;;;3.20;3.00;;;20.80;61.80;;;;;;5032719;28;20221;-48
2023/08/29 03:41:39;;;;;;;3.47;3.17;;;20.80;62.00;;;;;;5021216;28;20236;-44
2023/08/29 03:44:05;;;;;;;3.93;3.00;;;20.80;62.20;;;;;;5028166;28;20620;-45
2023/08/29 03:46:31;;;;;;;3.23;3.03;;;20.80;62.60;;;;;;5028017;28;20193;-44
2023/08/29 03:48:56;;;;;;;7.27;3.10;;;20.70;62.50;;;;;;5031489;28;20470;-44
2023/08/29 03:51:22;;;;;;;4.33;3.57;;;20.80;62.70;;;;;;5028362;28;20198;-44
2023/08/29 03:53:48;;;;;;;3.30;3.10;;;20.80;62.80;;;;;;5034247;28;20237;-44
2023/08/29 03:56:13;;;;;;;3.30;3.10;;;20.70;62.90;;;;;;5031208;28;20248;-44
2023/08/29 03:58:39;;;;;;;3.80;3.43;;;20.80;63.00;;;;;;5031757;28;20533;-44
2023/08/29 04:01:04;;;;;;;3.30;2.97;;;20.80;62.80;;;;;;5029032;28;20201;-46
2023/08/29 04:03:30;;;;;;;3.43;3.13;;;20.80;62.60;;;;;;5030354;28;20193;-44
2023/08/29 04:05:56;;;;;;;3.67;3.33;;;20.80;62.40;;;;;;5022815;28;20272;-47
2023/08/29 04:08:22;;;;;;;3.90;3.60;;;20.80;62.30;;;;;;5023816;28;20217;-44
2023/08/29 04:10:48;;;;;;;3.67;3.37;;;20.80;62.10;;;;;;5030866;28;20475;-48
2023/08/29 04:13:14;;;;;;;3.97;3.37;;;20.80;62.20;;;;;;5028112;28;20202;-43
2023/08/29 04:15:40;;;;;;;3.10;2.90;;;20.70;62.40;;;;;;5017781;28;20453;-45
2023/08/29 04:18:07;;;;;;;6.10;3.27;;;20.70;62.80;;;;;;5030401;28;20216;-45
2023/08/29 04:20:34;;;;;;;3.50;3.20;;;20.80;63.00;;;;;;5021773;28;20475;-44
2023/08/29 04:23:03;;;;;;;3.60;3.37;;;20.80;63.00;;;;;;5038806;28;20447;-46
2023/08/29 04:25:29;;;;;;;7.40;3.60;;;20.80;63.20;;;;;;5036410;28;20546;-49
2023/08/29 04:27:55;;;;;;;3.30;2.93;;;20.80;63.10;;;;;;5028885;28;20977;-46
2023/08/29 04:30:20;;;;;;;3.80;3.47;;;20.80;63.00;;;;;;5044417;28;20530;-44
2023/08/29 04:32:50;;;;;;;3.43;3.20;;;20.80;63.00;;;;;;5030591;28;20447;-43
2023/08/29 04:35:16;;;;;;;3.40;3.20;;;20.90;63.20;;;;;;5030106;28;20203;-49
2023/08/29 04:37:48;;;;;;;4.23;3.93;;;20.80;63.00;;;;;;5020824;28;20963;-45
2023/08/29 04:40:16;;;;;;;3.90;3.50;;;20.80;63.00;;;;;;5023786;28;20872;-46
2023/08/29 04:42:43;;;;;;;3.83;3.53;;;20.80;63.00;;;;;;5026412;28;20447;-44
2023/08/29 04:45:10;;;;;;;3.93;3.63;;;20.80;62.80;;;;;;5047987;28;20443;-43
2023/08/29 04:47:36;;;;;;;3.93;3.53;;;20.80;62.80;;;;;;5027216;28;20444;-46
2023/08/29 04:50:02;;;;;;;4.00;3.70;;;20.80;63.00;;;;;;5029288;28;21707;-44
2023/08/29 04:52:28;;;;;;;4.20;3.90;;;20.70;63.20;;;;;;5019823;28;22413;-47
2023/08/29 04:54:54;;;;;;;4.70;3.80;;;20.70;63.50;;;;;;5043932;28;20562;-46
2023/08/29 04:57:20;;;;;;;8.87;4.47;;;20.70;63.80;;;;;;5027878;28;20228;-47
2023/08/29 04:59:46;;;;;;;4.23;3.93;;;20.70;63.70;;;;;;5033428;28;20209;-44
2023/08/29 05:02:12;;;;;;;5.53;4.10;;;20.70;63.70;;;;;;5033105;28;20808;-46
2023/08/29 05:04:38;;;;;;;4.27;3.80;;;20.80;63.80;;;;;;5027768;28;20279;-44
2023/08/29 05:07:03;;;;;;;3.90;3.60;;;20.80;63.70;;;;;;5032734;28;20186;-46
2023/08/29 05:09:29;;;;;;;4.30;4.07;;;20.80;63.90;;;;;;5032900;28;20236;-44
2023/08/29 05:11:55;;;;;;;4.63;4.20;;;20.80;64.00;;;;;;5027819;28;20449;-46
2023/08/29 05:14:20;;;;;;;4.73;4.17;;;20.80;64.20;;;;;;5037744;28;20185;-45
2023/08/29 05:16:46;;;;;;;5.23;3.73;;;20.80;64.30;;;;;;5029328;28;20590;-48
2023/08/29 05:19:12;;;;;;;4.43;4.03;;;20.90;64.60;;;;;;5026303;28;20633;-44
2023/08/29 05:21:37;;;;;;;4.53;4.23;;;20.90;64.50;;;;;;5027467;28;20201;-44
2023/08/29 05:24:04;;;;;;;5.67;5.00;;;20.90;64.10;;;;;;5029214;28;20194;-45
2023/08/29 05:26:30;;;;;;;5.00;4.50;;;20.90;63.90;;;;;;5029759;28;20233;-45
2023/08/29 05:28:55;;;;;;;4.57;4.17;;;21.00;64.10;;;;;;5027117;28;20896;-44
2023/08/29 05:31:21;;;;;;;5.57;5.07;;;21.00;64.00;;;;;;5031472;28;20206;-46
2023/08/29 05:33:47;;;;;;;5.27;4.93;;;21.00;64.80;;;;;;5026358;28;20193;-44
2023/08/29 05:36:13;;;;;;;5.70;5.20;;;21.10;64.20;;;;;;5026945;28;20227;-44
2023/08/29 05:38:38;;;;;;;5.90;5.40;;;21.10;64.00;;;;;;5031176;28;20488;-44
2023/08/29 05:41:04;;;;;;;5.50;5.10;;;21.10;64.10;;;;;;5027668;28;20189;-45
2023/08/29 05:43:30;;;;;;;5.47;4.97;;;21.20;63.90;;;;;;5026814;28;20200;-44
2023/08/29 05:45:56;;;;;;;6.03;5.30;;;21.20;63.60;;;;;;5030118;28;20194;-44
2023/08/29 05:48:21;;;;;;;6.40;5.70;;;21.20;63.40;;;;;;5027543;28;20243;-45
2023/08/29 05:50:50;;;;;;;7.90;6.53;;;21.20;63.40;;;;;;5032287;28;20193;-45
2023/08/29 05:53:16;;;;;;;10.80;6.37;;;21.20;63.70;;;;;;5028491;28;20194;-45
2023/08/29 05:55:42;;;;;;;6.63;6.03;;;21.20;63.70;;;;;;5029737;28;20454;-44
2023/08/29 05:58:07;;;;;;;6.93;6.23;;;21.10;63.50;;;;;;5020171;28;20496;-44
2023/08/29 06:00:33;;;;;;;6.90;6.40;;;21.10;63.80;;;;;;5023797;28;20203;-47
2023/08/29 06:03:01;;;;;;;7.40;6.70;;;21.10;63.90;;;;;;5023452;28;20251;-44
2023/08/29 06:05:26;;;;;;;7.47;6.83;;;21.10;64.20;;;;;;5026156;28;20263;-46
2023/08/29 06:07:52;;;;;;;7.10;6.50;;;21.10;64.40;;;;;;5027101;28;20447;-46
2023/08/29 06:10:18;;;;;;;9.27;7.30;;;21.20;64.60;;;;;;5025183;28;20201;-47
2023/08/29 06:12:44;;;;;;;8.17;6.70;;;21.10;64.60;;;;;;5024498;28;20428;-45
2023/08/29 06:15:10;;;;;;;8.93;7.23;;;21.10;64.80;;;;;;5023908;28;20451;-45
2023/08/29 06:17:35;;;;;;;10.47;9.17;;;21.10;64.80;;;;;;5024451;28;20229;-49
2023/08/29 06:20:01;;;;;;;10.27;7.43;;;21.00;64.60;;;;;;5021330;28;20200;-45
2023/08/29 06:22:27;;;;;;;7.93;7.27;;;21.00;64.60;;;;;;5026200;28;20228;-45
2023/08/29 06:24:52;;;;;;;8.17;7.40;;;21.00;64.70;;;;;;5028053;28;20876;-44
2023/08/29 06:27:18;;;;;;;8.60;7.90;;;21.00;64.80;;;;;;5029557;28;20688;-47
2023/08/29 06:29:43;;;;;;;8.17;7.47;;;21.00;65.00;;;;;;5022438;28;20221;-46
2023/08/29 06:32:09;;;;;;;8.50;7.70;;;20.90;65.00;;;;;;5017822;28;20692;-49
2023/08/29 06:34:34;;;;;;;8.63;7.63;;;20.90;65.30;;;;;;5025170;28;20193;-46
2023/08/29 06:37:00;;;;;;;8.87;8.00;;;21.00;65.60;;;;;;5020243;28;20220;-48
2023/08/29 06:39:26;;;;;;;9.43;8.43;;;20.90;65.60;;;;;;5029705;28;20201;-47
2023/08/29 06:41:51;;;;;;;9.13;8.43;;;20.90;65.70;;;;;;5024872;28;20209;-45
2023/08/29 06:44:17;;;;;;;9.57;8.63;;;20.90;66.90;;;;;;5019376;28;20320;-44
2023/08/29 06:46:42;;;;;;;9.20;8.30;;;20.90;67.00;;;;;;5029259;28;20249;-44
2023/08/29 06:49:08;;;;;;;8.47;7.50;;;20.90;66.40;;;;;;5027630;28;20259;-44
2023/08/29 06:51:34;;;;;;;9.23;8.40;;;20.90;66.50;;;;;;5019549;28;20205;-48
2023/08/29 06:54:00;;;;;;;10.37;9.33;;;20.90;66.60;;;;;;5026393;28;20236;-44
2023/08/29 06:56:25;;;;;;;10.77;9.67;;;21.00;66.70;;;;;;5031089;28;20468;-46
2023/08/29 06:58:51;;;;;;;10.70;7.97;;;21.00;66.90;;;;;;5030173;28;20208;-45
2023/08/29 07:01:17;;;;;;;10.13;9.13;;;20.90;66.70;;;;;;5034143;28;20200;-46
2023/08/29 07:03:42;;;;;;;9.80;8.90;;;20.90;66.80;;;;;;5029185;28;20276;-48
2023/08/29 07:06:08;;;;;;;10.30;9.37;;;21.00;66.80;;;;;;5031854;28;20312;-46
2023/08/29 07:08:33;;;;;;;10.50;9.60;;;21.00;66.70;;;;;;5021959;28;20193;-47
2023/08/29 07:10:59;;;;;;;9.50;8.80;;;21.00;66.70;;;;;;5025345;28;20197;-44
2023/08/29 07:13:24;;;;;;;9.40;8.70;;;21.00;66.60;;;;;;5028874;28;20194;-45
2023/08/29 07:15:50;;;;;;;9.83;8.13;;;21.10;66.70;;;;;;5026318;28;20204;-46
2023/08/29 07:18:15;;;;;;;9.60;8.80;;;21.00;66.70;;;;;;5031047;28;20259;-45
2023/08/29 07:20:41;;;;;;;10.13;9.33;;;21.00;66.80;;;;;;5025750;28;20255;-45
2023/08/29 07:23:07;;;;;;;9.40;8.70;;;21.00;67.10;;;;;;5023521;28;20653;-46
2023/08/29 07:25:41;;;;;;;10.17;9.33;;;20.90;67.10;;;;;;5019293;28;20200;-45
2023/08/29 07:28:13;;;;;;;10.07;9.17;;;20.90;67.40;;;;;;5022187;28;20192;-51
2023/08/29 07:30:45;;;;;;;10.20;9.20;;;20.80;67.50;;;;;;5029116;28;20489;-44
2023/08/29 07:33:12;;;;;;;13.17;9.70;;;20.80;67.50;;;;;;5027261;28;20538;-44
2023/08/29 07:35:39;;;;;;;10.30;9.60;;;20.80;67.20;;;;;;5031832;28;20444;-44
2023/08/29 07:38:05;;;;;;;10.27;9.27;;;20.90;67.20;;;;;;5028937;28;20544;-44
2023/08/29 07:40:30;;;;;;;9.60;8.70;;;20.80;67.10;;;;;;5035203;28;20474;-48
2023/08/29 07:42:56;;;;;;;9.27;8.57;;;20.80;67.40;;;;;;5027586;28;20452;-46
2023/08/29 07:45:21;;;;;;;9.20;8.10;;;20.70;67.30;;;;;;5022776;28;20707;-46
2023/08/29 07:47:48;;;;;;;10.80;9.80;;;20.60;67.30;;;;;;5029336;28;20193;-48
2023/08/29 07:50:13;;;;;;;10.07;9.00;;;20.60;67.30;;;;;;5034615;28;20193;-46
2023/08/29 07:52:39;;;;;;;10.60;9.77;;;20.60;67.50;;;;;;5030991;28;20504;-45
2023/08/29 07:55:06;;;;;;;9.87;8.97;;;20.60;67.80;;;;;;5025288;28;20309;-50
2023/08/29 07:57:31;;;;;;;11.07;10.07;;;20.60;67.80;;;;;;5026840;28;20622;-44
2023/08/29 07:59:57;;;;;;;9.93;9.13;;;20.70;68.20;;;;;;5031399;28;20437;-49
2023/08/29 08:02:22;;;;;;;10.53;9.73;;;20.70;68.30;;;;;;5031905;28;20204;-45
2023/08/29 08:04:48;;;;;;;9.70;8.83;;;20.70;68.30;;;;;;5022865;28;20200;-45
2023/08/29 08:07:13;;;;;;;10.53;9.30;;;20.70;68.30;;;;;;5022314;28;20202;-45
2023/08/29 08:09:40;;;;;;;9.50;8.80;;;20.70;68.20;;;;;;5031820;28;20243;-45
2023/08/29 08:12:06;;;;;;;10.97;9.97;;;20.80;68.50;;;;;;5017606;28;20227;-46
2023/08/29 08:14:32;;;;;;;10.10;9.30;;;20.80;68.20;;;;;;5031273;28;20447;-45
2023/08/29 08:16:58;;;;;;;9.90;9.10;;;20.80;68.10;;;;;;5031579;28;20588;-46
2023/08/29 08:19:24;;;;;;;11.10;10.20;;;20.80;68.10;;;;;;5031807;28;20436;-49
2023/08/29 08:21:50;;;;;;;9.93;8.97;;;20.80;68.40;;;;;;5022829;28;20200;-44
2023/08/29 08:24:16;;;;;;;9.77;8.87;;;20.80;68.50;;;;;;5031164;28;20444;-45
2023/08/29 08:26:42;;;;;;;9.53;8.03;;;20.80;68.60;;;;;;5033705;28;21143;-45
2023/08/29 08:29:08;;;;;;;10.03;9.03;;;20.70;69.00;;;;;;5034023;28;20439;-46
2023/08/29 08:31:33;;;;;;;9.00;8.30;;;20.80;69.50;;;;;;5031953;28;20464;-45
2023/08/29 08:33:59;;;;;;;9.50;8.43;;;20.70;69.60;;;;;;5023247;28;20194;-44
2023/08/29 08:36:24;;;;;;;9.40;8.50;;;20.70;69.90;;;;;;5022272;28;20589;-44
2023/08/29 08:38:50;;;;;;;10.10;9.30;;;20.80;70.80;;;;;;5032357;28;20193;-45
2023/08/29 08:41:18;;;;;;;8.90;8.00;;;20.80;69.80;;;;;;5027820;28;20319;-45
2023/08/29 08:43:44;;;;;;;9.93;9.13;;;20.80;69.30;;;;;;5028757;28;20201;-47
2023/08/29 08:46:14;;;;;;;8.50;7.80;;;20.80;68.70;;;;;;5023503;28;20444;-52
2023/08/29 08:48:40;;;;;;;9.00;8.30;;;20.60;69.30;;;;;;5022962;28;20450;-49
2023/08/29 08:51:06;;;;;;;9.33;8.70;;;20.50;70.00;;;;;;5021411;28;20445;-46
2023/08/29 08:53:33;;;;;;;9.40;8.60;;;20.50;69.90;;;;;;5039250;28;22607;-47
2023/08/29 08:55:59;;;;;;;10.17;9.27;;;20.60;69.70;;;;;;5033612;28;20427;-44
2023/08/29 08:58:26;;;;;;;9.70;8.73;;;20.70;70.00;;;;;;5026634;28;20828;-45
2023/08/29 09:00:52;;;;;;;10.07;9.03;;;20.50;70.10;;;;;;5029812;28;20448;-45
2023/08/29 09:03:17;;;;;;;9.27;8.47;;;20.60;70.30;;;;;;5019933;28;20437;-49
2023/08/29 09:05:43;;;;;;;9.37;8.57;;;20.50;70.70;;;;;;5026144;28;20812;-45
2023/08/29 09:08:09;;;;;;;10.03;9.13;;;20.60;70.60;;;;;;5024440;28;20202;-45
2023/08/29 09:10:38;;;;;;;8.80;8.00;;;20.70;70.40;;;;;;5014621;28;20197;-44
2023/08/29 09:13:04;;;;;;;9.87;9.07;;;20.80;70.20;;;;;;5026079;28;20446;-44
2023/08/29 09:15:29;;;;;;;9.20;8.40;;;20.90;70.00;;;;;;5028848;28;20445;-51
2023/08/29 09:17:55;;;;;;;8.83;7.93;;;20.80;69.20;;;;;;5023592;28;20225;-49
2023/08/29 09:20:27;;;;;;;8.97;8.27;;;20.80;69.40;;;;;;5024932;28;20193;-49
2023/08/29 09:22:53;;;;;;;9.17;8.30;;;20.80;69.70;;;;;;5025088;28;20201;-48
2023/08/29 09:25:18;;;;;;;8.47;7.67;;;20.80;69.90;;;;;;5021255;28;20527;-44
2023/08/29 09:27:48;;;;;;;8.37;7.77;;;20.90;69.80;;;;;;5023744;28;20201;-47
2023/08/29 09:30:18;;;;;;;8.20;7.50;;;20.80;69.60;;;;;;5028574;28;20276;-48
2023/08/29 09:32:53;;;;;;;8.50;7.90;;;20.80;69.90;;;;;;5019490;28;20447;-48
2023/08/29 09:35:22;;;;;;;8.77;7.93;;;20.80;70.40;;;;;;5032874;28;20436;-46
2023/08/29 09:37:52;;;;;;;8.93;8.13;;;20.70;70.10;;;;;;5028934;28;20903;-45
2023/08/29 09:40:19;;;;;;;8.97;8.17;;;20.60;70.70;;;;;;5026907;28;20479;-44
2023/08/29 09:42:59;;;;;;;9.50;8.80;;;20.50;70.00;;;;;;5021753;28;20432;-44
2023/08/29 09:45:24;;;;;;;8.80;8.10;;;20.40;70.90;;;;;;5025847;28;20944;-47
2023/08/29 09:47:56;;;;;;;9.80;9.10;;;20.50;71.30;;;;;;5026848;28;20479;-50
2023/08/29 09:50:22;;;;;;;11.03;10.00;;;20.50;71.80;;;;;;5015841;28;20196;-48
2023/08/29 09:52:51;;;;;;;8.80;8.10;;;20.50;71.80;;;;;;5025450;28;20448;-46
2023/08/29 09:55:19;;;;;;;8.80;8.10;;;20.50;71.30;;;;;;5022640;28;20332;-47
2023/08/29 09:57:47;;;;;;;9.53;8.73;;;20.30;71.70;;;;;;5012589;28;20520;-49
2023/08/29 10:00:14;;;;;;;9.10;8.30;;;20.30;72.60;;;;;;5016674;28;20458;-50
2023/08/29 10:02:40;;;;;;;9.17;8.47;;;20.30;72.20;;;;;;5023438;28;20900;-48
2023/08/29 10:05:09;;;;;;;9.10;8.37;;;20.20;72.70;;;;;;5022109;28;20440;-47
2023/08/29 10:07:41;;;;;;;9.70;8.63;;;20.20;72.90;;;;;;5026894;28;20479;-47
2023/08/29 10:10:08;;;;;;;9.80;9.00;;;20.30;73.00;;;;;;5029025;28;21267;-50
2023/08/29 10:12:35;;;;;;;9.10;8.40;;;20.20;73.80;;;;;;5028901;28;20448;-45
2023/08/29 10:15:01;;;;;;;9.93;9.13;;;20.20;74.30;;;;;;5022668;28;20454;-45
2023/08/29 10:17:26;;;;;;;9.13;8.53;;;20.30;74.00;;;;;;5020457;28;20492;-47
2023/08/29 10:19:54;;;;;;;9.77;8.97;;;20.40;74.10;;;;;;5027423;28;20451;-45
2023/08/29 10:22:20;;;;;;;9.63;8.83;;;20.50;74.40;;;;;;5030041;28;20213;-47
2023/08/29 10:24:47;;;;;;;8.87;8.20;;;20.60;73.80;;;;;;5027122;28;20455;-44
2023/08/29 10:27:13;;;;;;;10.23;9.23;;;20.80;73.40;;;;;;5025426;28;20482;-48
2023/08/29 10:29:38;;;;;;;9.23;8.53;;;20.80;72.00;;;;;;5029357;28;20431;-46
2023/08/29 10:32:05;;;;;;;9.80;9.00;;;20.80;71.60;;;;;;5024688;28;20191;-45
2023/08/29 10:34:30;;;;;;;9.70;8.90;;;20.70;72.40;;;;;;5019272;28;20197;-45
2023/08/29 10:36:57;;;;;;;9.53;8.83;;;20.80;72.30;;;;;;5024611;28;20537;-49
2023/08/29 10:39:25;;;;;;;6.23;5.63;;;20.90;72.10;;;;;;5021084;28;20208;-45
2023/08/29 10:41:54;;;;;;;8.70;8.00;;;21.00;72.20;;;;;;5024605;28;20950;-49
2023/08/29 10:44:24;;;;;;;7.90;7.20;;;21.10;72.30;;;;;;5022395;28;20436;-44
2023/08/29 10:46:51;;;;;;;7.40;6.70;;;21.30;72.70;;;;;;5018723;28;20463;-46
2023/08/29 10:49:20;;;;;;;9.83;9.13;;;21.50;72.40;;;;;;5027708;28;20562;-47
2023/08/29 10:52:09;;;;;;;7.43;6.67;;;21.60;70.70;;;;;;5016130;28;20445;-47
2023/08/29 10:54:34;;;;;;;8.40;7.70;;;21.80;71.40;;;;;;5020636;28;20487;-45
2023/08/29 10:57:00;;;;;;;5.90;5.43;;;22.00;70.20;;;;;;5024409;28;20491;-49
2023/08/29 10:59:30;;;;;;;5.20;4.70;;;22.20;69.70;;;;;;5025159;28;20323;-48
2023/08/29 11:02:23;;;;;;;7.03;6.37;;;22.30;69.00;;;;;;5026239;28;20197;-44
2023/08/29 11:05:04;;;;;;;5.60;5.00;;;22.50;67.90;;;;;;5027516;28;20564;-46
2023/08/29 11:07:30;;;;;;;8.10;7.50;;;22.50;67.30;;;;;;5025210;28;20445;-44
2023/08/29 11:10:14;;;;;;;5.40;4.90;;;22.60;66.20;;;;;;5032595;28;20955;-48
2023/08/29 11:13:07;;;;;;;5.30;4.87;;;22.70;66.50;;;;;;5034151;28;20432;-47
2023/08/29 11:15:51;;;;;;;7.50;6.97;;;22.70;65.70;;;;;;5023456;28;20448;-52
2023/08/29 11:18:22;;;;;;;6.03;5.53;;;22.90;65.40;;;;;;5020318;28;20488;-46
2023/08/29 11:20:48;;;;;;;6.60;6.00;;;23.00;65.20;;;;;;5024082;28;20505;-46
2023/08/29 11:23:13;;;;;;;4.63;4.33;;;23.00;63.70;;;;;;5021590;28;20455;-48
2023/08/29 11:25:39;;;;;;;7.53;6.83;;;23.10;63.70;;;;;;5024377;28;20435;-46
2023/08/29 11:28:05;;;;;;;5.23;4.83;;;23.10;63.30;;;;;;5032903;28;20234;-46
2023/08/29 11:30:31;;;;;;;7.00;6.50;;;23.00;63.20;;;;;;5032252;28;20584;-46
2023/08/29 11:32:57;;;;;;;7.20;5.90;;;23.00;63.60;;;;;;5032410;28;20451;-47
2023/08/29 11:35:22;;;;;;;5.50;5.10;;;22.90;64.60;;;;;;5022673;28;20440;-47
2023/08/29 11:37:48;;;;;;;4.97;4.57;;;23.00;64.40;;;;;;5028373;28;20264;-52
2023/08/29 11:40:19;;;;;;;6.30;5.57;;;23.10;64.10;;;;;;5032760;28;20283;-47
2023/08/29 11:42:45;;;;;;;6.50;6.10;;;23.00;62.40;;;;;;5018433;28;20725;-47
2023/08/29 11:45:10;;;;;;;7.70;7.10;;;23.10;63.20;;;;;;5034368;28;20539;-46
2023/08/29 11:47:36;;;;;;;8.43;5.17;;;23.10;61.80;;;;;;5031420;28;20197;-46
2023/08/29 11:50:05;;;;;;;7.27;6.67;;;23.10;63.00;;;;;;5031649;28;20641;-50
2023/08/29 11:52:31;;;;;;;8.10;6.10;;;23.30;63.00;;;;;;5027339;28;20479;-47
2023/08/29 11:54:56;;;;;;;7.30;6.80;;;23.30;62.60;;;;;;5033678;28;20483;-45
2023/08/29 11:57:23;;;;;;;6.30;5.70;;;23.30;61.50;;;;;;5027183;28;20482;-46
2023/08/29 11:59:52;;;;;;;8.23;6.43;;;23.30;61.70;;;;;;5016297;28;20194;-48
2023/08/29 12:02:21;;;;;;;5.50;5.07;;;23.40;62.80;;;;;;5020440;28;20440;-48
2023/08/29 12:04:48;;;;;;;3.73;3.43;;;23.50;63.10;;;;;;5019467;28;20447;-46
2023/08/29 12:07:15;;;;;;;5.43;5.03;;;23.50;62.30;;;;;;5028253;28;20443;-47
2023/08/29 12:09:45;;;;;;;4.30;3.90;;;23.60;62.40;;;;;;5025528;28;20958;-45
2023/08/29 12:12:33;;;;;;;6.27;5.77;;;23.70;62.10;;;;;;5022960;28;20436;-45
2023/08/29 12:14:59;;;;;;;7.37;6.77;;;23.90;61.60;;;;;;5019581;28;20445;-46
2023/08/29 12:17:40;;;;;;;4.60;4.30;;;24.00;61.00;;;;;;5025076;28;20594;-47
2023/08/29 12:20:14;;;;;;;4.67;4.27;;;24.00;60.20;;;;;;5029836;28;20444;-45
2023/08/29 12:22:47;;;;;;;6.40;5.80;;;24.10;60.60;;;;;;5025122;28;20543;-45
2023/08/29 12:25:13;;;;;;;7.43;6.93;;;24.10;60.60;;;;;;5030106;28;20848;-46
2023/08/29 12:27:39;;;;;;;7.30;6.60;;;24.10;59.40;;;;;;5029194;28;20444;-46
2023/08/29 12:30:14;;;;;;;7.47;6.97;;;24.10;59.40;;;;;;5021957;28;20262;-49
2023/08/29 12:32:43;;;;;;;6.27;5.80;;;23.90;59.30;;;;;;5020419;28;20539;-45
2023/08/29 12:35:10;;;;;;;7.20;6.60;;;23.90;59.70;;;;;;5022416;28;20439;-44
2023/08/29 12:37:36;;;;;;;5.87;5.40;;;23.80;59.90;;;;;;5017119;28;20923;-45
2023/08/29 12:40:04;;;;;;;6.87;6.30;;;23.80;60.30;;;;;;5033173;28;20464;-48
2023/08/29 12:42:33;;;;;;;7.40;6.90;;;23.80;60.70;;;;;;5028658;28;20205;-53
2023/08/29 12:44:59;;;;;;;8.67;6.30;;;23.90;60.50;;;;;;5027830;28;20458;-45
2023/08/29 12:47:25;;;;;;;7.40;6.80;;;23.90;60.40;;;;;;5029451;28;20464;-45